sensor_id;sensor_type;location;lat;lon;timestamp;P1;durP1;ratioP1;P2;durP2;ratioP2
10201;SDS011;5143;42.584;23.164;2023-05-31T00:01:12;4.80;;;3.43;;
10201;SDS011;5143;42.584;23.164;2023-05-31T00:03:39;8.30;;;5.00;;
10201;SDS011;5143;42.584;23.164;2023-05-31T00:06:08;7.37;;;4.17;;
10201;SDS011;5143;42.584;23.164;2023-05-31T00:08:36;5.67;;;3.83;;
10201;SDS011;5143;42.584;23.164;2023-05-31T00:11:04;4.87;;;3.53;;
10201;SDS011;5143;42.584;23.164;2023-05-31T00:13:32;8.87;;;3.73;;
10201;SDS011;5143;42.584;23.164;2023-05-31T00:15:59;3.70;;;3.30;;
10201;SDS011;5143;42.584;23.164;2023-05-31T00:18:26;4.67;;;3.33;;
10201;SDS011;5143;42.584;23.164;2023-05-31T00:20:52;3.80;;;3.30;;
10201;SDS011;5143;42.584;23.164;2023-05-31T00:23:19;5.40;;;3.33;;
10201;SDS011;5143;42.584;23.164;2023-05-31T00:25:47;6.43;;;3.23;;
10201;SDS011;5143;42.584;23.164;2023-05-31T00:28:14;3.20;;;2.90;;
10201;SDS011;5143;42.584;23.164;2023-05-31T00:30:41;4.77;;;3.27;;
10201;SDS011;5143;42.584;23.164;2023-05-31T00:33:08;4.60;;;3.57;;
10201;SDS011;5143;42.584;23.164;2023-05-31T00:35:35;8.77;;;3.67;;
10201;SDS011;5143;42.584;23.164;2023-05-31T00:38:03;5.03;;;3.13;;
10201;SDS011;5143;42.584;23.164;2023-05-31T00:40:31;8.23;;;3.23;;
10201;SDS011;5143;42.584;23.164;2023-05-31T00:42:59;6.27;;;3.30;;
10201;SDS011;5143;42.584;23.164;2023-05-31T00:45:26;5.67;;;3.60;;
10201;SDS011;5143;42.584;23.164;2023-05-31T00:47:53;5.37;;;3.90;;
10201;SDS011;5143;42.584;23.164;2023-05-31T00:50:21;8.13;;;3.30;;
10201;SDS011;5143;42.584;23.164;2023-05-31T00:52:48;7.90;;;3.47;;
10201;SDS011;5143;42.584;23.164;2023-05-31T00:55:17;4.70;;;3.13;;
10201;SDS011;5143;42.584;23.164;2023-05-31T00:57:44;6.13;;;3.90;;
10201;SDS011;5143;42.584;23.164;2023-05-31T01:00:13;4.77;;;3.60;;
10201;SDS011;5143;42.584;23.164;2023-05-31T01:02:41;3.87;;;3.23;;
10201;SDS011;5143;42.584;23.164;2023-05-31T01:05:08;7.80;;;4.30;;
10201;SDS011;5143;42.584;23.164;2023-05-31T01:07:35;4.30;;;3.60;;
10201;SDS011;5143;42.584;23.164;2023-05-31T01:10:03;6.83;;;4.00;;
10201;SDS011;5143;42.584;23.164;2023-05-31T01:12:33;5.20;;;3.87;;
10201;SDS011;5143;42.584;23.164;2023-05-31T01:15:08;4.47;;;3.10;;
10201;SDS011;5143;42.584;23.164;2023-05-31T01:17:42;5.17;;;3.67;;
10201;SDS011;5143;42.584;23.164;2023-05-31T01:20:14;4.40;;;4.00;;
10201;SDS011;5143;42.584;23.164;2023-05-31T01:22:55;8.00;;;4.40;;
10201;SDS011;5143;42.584;23.164;2023-05-31T01:25:33;8.00;;;4.70;;
10201;SDS011;5143;42.584;23.164;2023-05-31T01:28:12;6.67;;;4.10;;
10201;SDS011;5143;42.584;23.164;2023-05-31T01:30:40;6.93;;;4.17;;
10201;SDS011;5143;42.584;23.164;2023-05-31T01:33:09;4.70;;;4.03;;
10201;SDS011;5143;42.584;23.164;2023-05-31T01:35:36;4.97;;;3.80;;
10201;SDS011;5143;42.584;23.164;2023-05-31T01:38:03;5.40;;;4.23;;
10201;SDS011;5143;42.584;23.164;2023-05-31T01:40:30;4.80;;;4.30;;
10201;SDS011;5143;42.584;23.164;2023-05-31T01:42:59;10.63;;;4.20;;
10201;SDS011;5143;42.584;23.164;2023-05-31T01:45:27;13.93;;;4.90;;
10201;SDS011;5143;42.584;23.164;2023-05-31T01:47:57;5.97;;;3.83;;
10201;SDS011;5143;42.584;23.164;2023-05-31T01:50:26;10.77;;;4.20;;
10201;SDS011;5143;42.584;23.164;2023-05-31T01:52:54;7.47;;;4.50;;
10201;SDS011;5143;42.584;23.164;2023-05-31T01:55:21;4.17;;;3.77;;
10201;SDS011;5143;42.584;23.164;2023-05-31T01:57:47;6.57;;;4.53;;
10201;SDS011;5143;42.584;23.164;2023-05-31T02:00:15;5.37;;;3.80;;
10201;SDS011;5143;42.584;23.164;2023-05-31T02:02:44;5.40;;;3.90;;
10201;SDS011;5143;42.584;23.164;2023-05-31T02:05:11;6.47;;;3.80;;
10201;SDS011;5143;42.584;23.164;2023-05-31T02:07:39;5.13;;;3.50;;
10201;SDS011;5143;42.584;23.164;2023-05-31T02:10:07;5.77;;;3.83;;
10201;SDS011;5143;42.584;23.164;2023-05-31T02:12:35;10.10;;;3.60;;
10201;SDS011;5143;42.584;23.164;2023-05-31T02:15:02;6.17;;;3.97;;
10201;SDS011;5143;42.584;23.164;2023-05-31T02:17:29;6.53;;;3.60;;
10201;SDS011;5143;42.584;23.164;2023-05-31T02:19:59;6.77;;;3.83;;
10201;SDS011;5143;42.584;23.164;2023-05-31T02:22:27;4.63;;;3.83;;
10201;SDS011;5143;42.584;23.164;2023-05-31T02:24:54;4.17;;;3.77;;
10201;SDS011;5143;42.584;23.164;2023-05-31T02:27:21;6.80;;;3.80;;
10201;SDS011;5143;42.584;23.164;2023-05-31T02:29:48;5.67;;;3.73;;
10201;SDS011;5143;42.584;23.164;2023-05-31T02:32:15;7.70;;;3.93;;
10201;SDS011;5143;42.584;23.164;2023-05-31T02:34:42;4.17;;;3.77;;
10201;SDS011;5143;42.584;23.164;2023-05-31T02:37:11;5.87;;;3.80;;
10201;SDS011;5143;42.584;23.164;2023-05-31T02:39:38;7.00;;;4.00;;
10201;SDS011;5143;42.584;23.164;2023-05-31T02:42:05;5.70;;;3.40;;
10201;SDS011;5143;42.584;23.164;2023-05-31T02:44:32;10.93;;;4.43;;
10201;SDS011;5143;42.584;23.164;2023-05-31T02:46:59;8.67;;;4.23;;
10201;SDS011;5143;42.584;23.164;2023-05-31T02:49:25;6.20;;;4.03;;
10201;SDS011;5143;42.584;23.164;2023-05-31T02:51:52;6.90;;;4.20;;
10201;SDS011;5143;42.584;23.164;2023-05-31T02:54:20;13.07;;;4.97;;
10201;SDS011;5143;42.584;23.164;2023-05-31T02:56:47;6.53;;;4.47;;
10201;SDS011;5143;42.584;23.164;2023-05-31T02:59:14;4.93;;;3.80;;
10201;SDS011;5143;42.584;23.164;2023-05-31T03:01:41;7.00;;;4.80;;
10201;SDS011;5143;42.584;23.164;2023-05-31T03:04:07;8.13;;;4.23;;
10201;SDS011;5143;42.584;23.164;2023-05-31T03:06:34;5.70;;;4.63;;
10201;SDS011;5143;42.584;23.164;2023-05-31T03:09:01;8.27;;;4.33;;
10201;SDS011;5143;42.584;23.164;2023-05-31T03:11:30;6.83;;;4.27;;
10201;SDS011;5143;42.584;23.164;2023-05-31T03:13:56;5.27;;;4.27;;
10201;SDS011;5143;42.584;23.164;2023-05-31T03:16:23;7.10;;;4.47;;
10201;SDS011;5143;42.584;23.164;2023-05-31T03:18:50;5.00;;;4.00;;
10201;SDS011;5143;42.584;23.164;2023-05-31T03:21:17;10.40;;;4.23;;
10201;SDS011;5143;42.584;23.164;2023-05-31T03:23:44;10.50;;;3.90;;
10201;SDS011;5143;42.584;23.164;2023-05-31T03:26:11;6.87;;;3.87;;
10201;SDS011;5143;42.584;23.164;2023-05-31T03:28:39;5.37;;;4.20;;
10201;SDS011;5143;42.584;23.164;2023-05-31T03:31:05;4.53;;;3.80;;
10201;SDS011;5143;42.584;23.164;2023-05-31T03:33:32;4.83;;;4.07;;
10201;SDS011;5143;42.584;23.164;2023-05-31T03:36:00;8.50;;;3.70;;
10201;SDS011;5143;42.584;23.164;2023-05-31T03:38:27;5.30;;;4.50;;
10201;SDS011;5143;42.584;23.164;2023-05-31T03:40:54;14.23;;;4.50;;
10201;SDS011;5143;42.584;23.164;2023-05-31T03:43:21;7.07;;;3.97;;
10201;SDS011;5143;42.584;23.164;2023-05-31T03:45:49;7.87;;;3.63;;
10201;SDS011;5143;42.584;23.164;2023-05-31T03:48:16;4.37;;;3.90;;
10201;SDS011;5143;42.584;23.164;2023-05-31T03:50:43;8.53;;;4.37;;
10201;SDS011;5143;42.584;23.164;2023-05-31T03:53:10;5.50;;;4.03;;
10201;SDS011;5143;42.584;23.164;2023-05-31T03:55:37;7.07;;;4.20;;
10201;SDS011;5143;42.584;23.164;2023-05-31T03:58:03;6.40;;;4.33;;
10201;SDS011;5143;42.584;23.164;2023-05-31T04:00:30;5.90;;;3.63;;
10201;SDS011;5143;42.584;23.164;2023-05-31T04:02:58;14.90;;;4.07;;
10201;SDS011;5143;42.584;23.164;2023-05-31T04:05:25;5.70;;;3.30;;
10201;SDS011;5143;42.584;23.164;2023-05-31T04:07:52;7.77;;;4.00;;
10201;SDS011;5143;42.584;23.164;2023-05-31T04:10:19;6.47;;;3.80;;
10201;SDS011;5143;42.584;23.164;2023-05-31T04:12:46;4.37;;;3.90;;
10201;SDS011;5143;42.584;23.164;2023-05-31T04:15:13;6.13;;;4.20;;
10201;SDS011;5143;42.584;23.164;2023-05-31T04:17:39;5.30;;;4.80;;
10201;SDS011;5143;42.584;23.164;2023-05-31T04:20:08;8.20;;;4.47;;
10201;SDS011;5143;42.584;23.164;2023-05-31T04:22:35;9.80;;;4.23;;
10201;SDS011;5143;42.584;23.164;2023-05-31T04:25:02;10.97;;;4.93;;
10201;SDS011;5143;42.584;23.164;2023-05-31T04:27:30;11.93;;;4.00;;
10201;SDS011;5143;42.584;23.164;2023-05-31T04:29:58;9.33;;;5.10;;
10201;SDS011;5143;42.584;23.164;2023-05-31T04:32:26;9.67;;;4.90;;
10201;SDS011;5143;42.584;23.164;2023-05-31T04:34:53;7.27;;;4.40;;
10201;SDS011;5143;42.584;23.164;2023-05-31T04:37:24;11.10;;;4.23;;
10201;SDS011;5143;42.584;23.164;2023-05-31T04:39:53;5.13;;;4.60;;
10201;SDS011;5143;42.584;23.164;2023-05-31T04:42:20;6.00;;;4.00;;
10201;SDS011;5143;42.584;23.164;2023-05-31T04:44:49;9.87;;;5.33;;
10201;SDS011;5143;42.584;23.164;2023-05-31T04:47:16;9.33;;;5.07;;
10201;SDS011;5143;42.584;23.164;2023-05-31T04:49:44;5.23;;;4.73;;
10201;SDS011;5143;42.584;23.164;2023-05-31T04:52:11;7.07;;;4.80;;
10201;SDS011;5143;42.584;23.164;2023-05-31T04:54:40;10.77;;;4.63;;
10201;SDS011;5143;42.584;23.164;2023-05-31T04:57:07;5.67;;;4.50;;
10201;SDS011;5143;42.584;23.164;2023-05-31T04:59:34;14.43;;;5.53;;
10201;SDS011;5143;42.584;23.164;2023-05-31T05:02:01;10.60;;;4.73;;
10201;SDS011;5143;42.584;23.164;2023-05-31T05:04:28;6.47;;;4.13;;
10201;SDS011;5143;42.584;23.164;2023-05-31T05:06:56;4.23;;;3.80;;
10201;SDS011;5143;42.584;23.164;2023-05-31T05:09:23;8.83;;;4.00;;
10201;SDS011;5143;42.584;23.164;2023-05-31T05:11:51;7.47;;;3.70;;
10201;SDS011;5143;42.584;23.164;2023-05-31T05:14:18;6.37;;;3.97;;
10201;SDS011;5143;42.584;23.164;2023-05-31T05:16:45;5.33;;;3.70;;
10201;SDS011;5143;42.584;23.164;2023-05-31T05:19:12;3.97;;;3.13;;
10201;SDS011;5143;42.584;23.164;2023-05-31T05:21:38;5.87;;;3.17;;
10201;SDS011;5143;42.584;23.164;2023-05-31T05:24:05;5.33;;;3.30;;
10201;SDS011;5143;42.584;23.164;2023-05-31T05:26:32;3.57;;;3.00;;
10201;SDS011;5143;42.584;23.164;2023-05-31T05:29:01;4.10;;;2.90;;
10201;SDS011;5143;42.584;23.164;2023-05-31T05:31:27;5.77;;;3.27;;
10201;SDS011;5143;42.584;23.164;2023-05-31T05:33:55;3.87;;;3.13;;
10201;SDS011;5143;42.584;23.164;2023-05-31T05:36:22;6.97;;;3.37;;
10201;SDS011;5143;42.584;23.164;2023-05-31T05:38:49;9.47;;;3.50;;
10201;SDS011;5143;42.584;23.164;2023-05-31T05:41:16;8.10;;;3.97;;
10201;SDS011;5143;42.584;23.164;2023-05-31T05:43:43;13.60;;;4.23;;
10201;SDS011;5143;42.584;23.164;2023-05-31T05:46:11;8.17;;;4.27;;
10201;SDS011;5143;42.584;23.164;2023-05-31T05:48:38;7.00;;;4.20;;
10201;SDS011;5143;42.584;23.164;2023-05-31T05:51:05;18.53;;;5.10;;
10201;SDS011;5143;42.584;23.164;2023-05-31T05:53:32;13.47;;;4.70;;
10201;SDS011;5143;42.584;23.164;2023-05-31T05:55:58;12.00;;;4.90;;
10201;SDS011;5143;42.584;23.164;2023-05-31T05:58:25;8.20;;;4.50;;
10201;SDS011;5143;42.584;23.164;2023-05-31T06:00:52;5.60;;;4.50;;
10201;SDS011;5143;42.584;23.164;2023-05-31T06:03:20;13.43;;;4.73;;
10201;SDS011;5143;42.584;23.164;2023-05-31T06:05:48;9.73;;;5.07;;
10201;SDS011;5143;42.584;23.164;2023-05-31T06:08:15;6.73;;;4.70;;
10201;SDS011;5143;42.584;23.164;2023-05-31T06:10:43;6.73;;;5.20;;
10201;SDS011;5143;42.584;23.164;2023-05-31T06:13:10;10.03;;;5.43;;
10201;SDS011;5143;42.584;23.164;2023-05-31T06:15:36;13.33;;;5.60;;
10201;SDS011;5143;42.584;23.164;2023-05-31T06:18:03;6.80;;;5.20;;
10201;SDS011;5143;42.584;23.164;2023-05-31T06:20:31;7.07;;;5.90;;
10201;SDS011;5143;42.584;23.164;2023-05-31T06:22:58;7.27;;;5.53;;
10201;SDS011;5143;42.584;23.164;2023-05-31T06:25:25;12.73;;;5.67;;
10201;SDS011;5143;42.584;23.164;2023-05-31T06:27:52;12.17;;;6.73;;
10201;SDS011;5143;42.584;23.164;2023-05-31T06:30:22;7.77;;;5.43;;
10201;SDS011;5143;42.584;23.164;2023-05-31T06:32:48;6.13;;;5.50;;
10201;SDS011;5143;42.584;23.164;2023-05-31T06:35:15;7.60;;;5.60;;
10201;SDS011;5143;42.584;23.164;2023-05-31T06:37:43;7.20;;;5.80;;
10201;SDS011;5143;42.584;23.164;2023-05-31T06:40:11;6.27;;;5.67;;
10201;SDS011;5143;42.584;23.164;2023-05-31T06:42:37;6.83;;;4.83;;
10201;SDS011;5143;42.584;23.164;2023-05-31T06:45:05;9.33;;;4.93;;
10201;SDS011;5143;42.584;23.164;2023-05-31T06:47:32;8.37;;;5.10;;
10201;SDS011;5143;42.584;23.164;2023-05-31T06:49:59;11.37;;;5.37;;
10201;SDS011;5143;42.584;23.164;2023-05-31T06:52:27;8.30;;;5.20;;
10201;SDS011;5143;42.584;23.164;2023-05-31T06:54:55;9.27;;;5.70;;
10201;SDS011;5143;42.584;23.164;2023-05-31T06:57:22;12.03;;;5.87;;
10201;SDS011;5143;42.584;23.164;2023-05-31T06:59:48;11.37;;;5.50;;
10201;SDS011;5143;42.584;23.164;2023-05-31T07:02:15;10.10;;;5.33;;
10201;SDS011;5143;42.584;23.164;2023-05-31T07:04:42;11.10;;;5.63;;
10201;SDS011;5143;42.584;23.164;2023-05-31T07:07:09;9.03;;;5.57;;
10201;SDS011;5143;42.584;23.164;2023-05-31T07:09:36;11.03;;;6.43;;
10201;SDS011;5143;42.584;23.164;2023-05-31T07:12:05;12.10;;;6.67;;
10201;SDS011;5143;42.584;23.164;2023-05-31T07:14:32;18.87;;;6.97;;
10201;SDS011;5143;42.584;23.164;2023-05-31T07:16:59;14.53;;;6.40;;
10201;SDS011;5143;42.584;23.164;2023-05-31T07:19:28;24.23;;;6.60;;
10201;SDS011;5143;42.584;23.164;2023-05-31T07:21:55;18.73;;;6.53;;
10201;SDS011;5143;42.584;23.164;2023-05-31T07:24:21;13.80;;;6.47;;
10201;SDS011;5143;42.584;23.164;2023-05-31T07:26:49;15.77;;;5.93;;
10201;SDS011;5143;42.584;23.164;2023-05-31T07:29:17;20.73;;;7.10;;
10201;SDS011;5143;42.584;23.164;2023-05-31T07:31:43;20.20;;;6.80;;
10201;SDS011;5143;42.584;23.164;2023-05-31T07:34:10;25.57;;;7.50;;
10201;SDS011;5143;42.584;23.164;2023-05-31T07:36:37;15.23;;;6.33;;
10201;SDS011;5143;42.584;23.164;2023-05-31T07:39:05;17.07;;;6.37;;
10201;SDS011;5143;42.584;23.164;2023-05-31T07:41:35;19.37;;;6.30;;
10201;SDS011;5143;42.584;23.164;2023-05-31T07:44:02;12.97;;;6.43;;
10201;SDS011;5143;42.584;23.164;2023-05-31T07:46:31;20.33;;;5.80;;
10201;SDS011;5143;42.584;23.164;2023-05-31T07:48:58;24.33;;;6.67;;
10201;SDS011;5143;42.584;23.164;2023-05-31T07:51:25;17.43;;;6.03;;
10201;SDS011;5143;42.584;23.164;2023-05-31T07:53:54;19.17;;;6.23;;
10201;SDS011;5143;42.584;23.164;2023-05-31T07:56:21;14.70;;;6.00;;
10201;SDS011;5143;42.584;23.164;2023-05-31T07:58:48;13.50;;;5.57;;
10201;SDS011;5143;42.584;23.164;2023-05-31T08:01:14;9.53;;;4.93;;
10201;SDS011;5143;42.584;23.164;2023-05-31T08:03:43;14.50;;;5.80;;
10201;SDS011;5143;42.584;23.164;2023-05-31T08:06:09;19.93;;;5.93;;
10201;SDS011;5143;42.584;23.164;2023-05-31T08:08:36;17.20;;;5.53;;
10201;SDS011;5143;42.584;23.164;2023-05-31T08:11:03;13.40;;;5.47;;
10201;SDS011;5143;42.584;23.164;2023-05-31T08:13:30;22.27;;;5.90;;
10201;SDS011;5143;42.584;23.164;2023-05-31T08:15:57;16.83;;;6.33;;
10201;SDS011;5143;42.584;23.164;2023-05-31T08:18:23;18.53;;;5.57;;
10201;SDS011;5143;42.584;23.164;2023-05-31T08:20:52;22.30;;;5.27;;
10201;SDS011;5143;42.584;23.164;2023-05-31T08:23:19;12.00;;;4.90;;
10201;SDS011;5143;42.584;23.164;2023-05-31T08:25:46;13.70;;;5.87;;
10201;SDS011;5143;42.584;23.164;2023-05-31T08:28:14;24.23;;;6.67;;
10201;SDS011;5143;42.584;23.164;2023-05-31T08:30:40;16.27;;;4.80;;
10201;SDS011;5143;42.584;23.164;2023-05-31T08:33:07;17.83;;;4.60;;
10201;SDS011;5143;42.584;23.164;2023-05-31T08:35:34;14.47;;;4.73;;
10201;SDS011;5143;42.584;23.164;2023-05-31T08:38:02;13.37;;;4.80;;
10201;SDS011;5143;42.584;23.164;2023-05-31T08:40:29;7.67;;;3.80;;
10201;SDS011;5143;42.584;23.164;2023-05-31T08:42:58;11.10;;;3.93;;
10201;SDS011;5143;42.584;23.164;2023-05-31T08:45:26;11.00;;;4.33;;
10201;SDS011;5143;42.584;23.164;2023-05-31T08:47:56;12.73;;;4.43;;
10201;SDS011;5143;42.584;23.164;2023-05-31T08:50:31;11.13;;;3.57;;
10201;SDS011;5143;42.584;23.164;2023-05-31T08:52:59;9.30;;;3.13;;
10201;SDS011;5143;42.584;23.164;2023-05-31T08:55:27;9.77;;;3.70;;
10201;SDS011;5143;42.584;23.164;2023-05-31T08:57:56;6.80;;;3.37;;
10201;SDS011;5143;42.584;23.164;2023-05-31T09:00:23;9.80;;;4.20;;
10201;SDS011;5143;42.584;23.164;2023-05-31T09:02:51;6.85;;;4.15;;
10201;SDS011;5143;42.584;23.164;2023-05-31T09:05:18;9.27;;;3.97;;
10201;SDS011;5143;42.584;23.164;2023-05-31T09:07:45;10.50;;;4.50;;
10201;SDS011;5143;42.584;23.164;2023-05-31T09:10:15;8.80;;;3.30;;
10201;SDS011;5143;42.584;23.164;2023-05-31T09:12:43;12.73;;;4.00;;
10201;SDS011;5143;42.584;23.164;2023-05-31T09:15:11;8.57;;;3.30;;
10201;SDS011;5143;42.584;23.164;2023-05-31T09:17:41;9.63;;;3.70;;
10201;SDS011;5143;42.584;23.164;2023-05-31T09:20:09;5.80;;;3.00;;
10201;SDS011;5143;42.584;23.164;2023-05-31T09:22:36;6.67;;;3.17;;
10201;SDS011;5143;42.584;23.164;2023-05-31T09:25:04;8.50;;;3.60;;
10201;SDS011;5143;42.584;23.164;2023-05-31T09:27:35;8.17;;;3.60;;
10201;SDS011;5143;42.584;23.164;2023-05-31T09:30:08;10.80;;;3.87;;
10201;SDS011;5143;42.584;23.164;2023-05-31T09:32:37;9.27;;;3.47;;
10201;SDS011;5143;42.584;23.164;2023-05-31T09:35:11;11.03;;;3.67;;
10201;SDS011;5143;42.584;23.164;2023-05-31T09:37:42;10.43;;;4.00;;
10201;SDS011;5143;42.584;23.164;2023-05-31T09:40:12;11.83;;;4.13;;
10201;SDS011;5143;42.584;23.164;2023-05-31T09:42:46;10.83;;;3.70;;
10201;SDS011;5143;42.584;23.164;2023-05-31T09:45:15;13.17;;;4.00;;
10201;SDS011;5143;42.584;23.164;2023-05-31T09:47:43;9.70;;;3.97;;
10201;SDS011;5143;42.584;23.164;2023-05-31T09:50:10;9.07;;;4.33;;
10201;SDS011;5143;42.584;23.164;2023-05-31T09:52:37;13.27;;;4.20;;
10201;SDS011;5143;42.584;23.164;2023-05-31T09:55:06;12.13;;;4.50;;
10201;SDS011;5143;42.584;23.164;2023-05-31T09:57:36;8.83;;;4.10;;
10201;SDS011;5143;42.584;23.164;2023-05-31T10:00:06;16.87;;;4.97;;
10201;SDS011;5143;42.584;23.164;2023-05-31T10:02:42;10.43;;;4.73;;
10201;SDS011;5143;42.584;23.164;2023-05-31T10:05:10;14.23;;;5.23;;
10201;SDS011;5143;42.584;23.164;2023-05-31T10:07:38;12.63;;;4.53;;
10201;SDS011;5143;42.584;23.164;2023-05-31T10:10:06;6.13;;;4.17;;
10201;SDS011;5143;42.584;23.164;2023-05-31T10:12:34;8.23;;;3.90;;
10201;SDS011;5143;42.584;23.164;2023-05-31T10:15:07;11.30;;;4.83;;
10201;SDS011;5143;42.584;23.164;2023-05-31T10:17:39;6.83;;;4.50;;
10201;SDS011;5143;42.584;23.164;2023-05-31T10:20:13;9.10;;;4.73;;
10201;SDS011;5143;42.584;23.164;2023-05-31T10:22:43;12.00;;;4.47;;
10201;SDS011;5143;42.584;23.164;2023-05-31T10:25:15;9.77;;;4.13;;
10201;SDS011;5143;42.584;23.164;2023-05-31T10:27:47;9.03;;;4.70;;
10201;SDS011;5143;42.584;23.164;2023-05-31T10:30:19;10.57;;;4.47;;
10201;SDS011;5143;42.584;23.164;2023-05-31T10:32:53;8.30;;;3.90;;
10201;SDS011;5143;42.584;23.164;2023-05-31T10:35:24;10.90;;;3.50;;
10201;SDS011;5143;42.584;23.164;2023-05-31T10:37:52;7.23;;;3.30;;
10201;SDS011;5143;42.584;23.164;2023-05-31T10:40:20;11.77;;;4.73;;
10201;SDS011;5143;42.584;23.164;2023-05-31T10:42:54;8.30;;;4.37;;
10201;SDS011;5143;42.584;23.164;2023-05-31T10:45:26;9.00;;;4.47;;
10201;SDS011;5143;42.584;23.164;2023-05-31T10:47:58;10.73;;;5.30;;
10201;SDS011;5143;42.584;23.164;2023-05-31T10:50:29;10.50;;;4.97;;
10201;SDS011;5143;42.584;23.164;2023-05-31T10:53:08;12.53;;;4.80;;
10201;SDS011;5143;42.584;23.164;2023-05-31T10:55:40;6.67;;;4.70;;
10201;SDS011;5143;42.584;23.164;2023-05-31T10:58:07;7.73;;;4.37;;
10201;SDS011;5143;42.584;23.164;2023-05-31T11:00:51;13.33;;;5.07;;
10201;SDS011;5143;42.584;23.164;2023-05-31T11:03:21;8.47;;;4.50;;
10201;SDS011;5143;42.584;23.164;2023-05-31T11:05:55;9.03;;;4.20;;
10201;SDS011;5143;42.584;23.164;2023-05-31T11:08:24;7.50;;;5.00;;
10201;SDS011;5143;42.584;23.164;2023-05-31T11:10:51;10.20;;;5.00;;
10201;SDS011;5143;42.584;23.164;2023-05-31T11:13:18;10.23;;;4.97;;
10201;SDS011;5143;42.584;23.164;2023-05-31T11:15:45;12.47;;;6.00;;
10201;SDS011;5143;42.584;23.164;2023-05-31T11:18:16;7.03;;;4.93;;
10201;SDS011;5143;42.584;23.164;2023-05-31T11:20:49;6.37;;;5.17;;
10201;SDS011;5143;42.584;23.164;2023-05-31T11:23:22;10.33;;;5.23;;
10201;SDS011;5143;42.584;23.164;2023-05-31T11:26:14;11.27;;;5.00;;
10201;SDS011;5143;42.584;23.164;2023-05-31T11:28:49;9.67;;;4.87;;
10201;SDS011;5143;42.584;23.164;2023-05-31T11:31:24;7.97;;;4.87;;
10201;SDS011;5143;42.584;23.164;2023-05-31T11:34:26;10.80;;;4.87;;
10201;SDS011;5143;42.584;23.164;2023-05-31T11:36:56;9.20;;;4.97;;
10201;SDS011;5143;42.584;23.164;2023-05-31T11:39:24;7.80;;;4.00;;
10201;SDS011;5143;42.584;23.164;2023-05-31T11:41:53;9.10;;;4.47;;
10201;SDS011;5143;42.584;23.164;2023-05-31T11:44:20;10.87;;;4.97;;
10201;SDS011;5143;42.584;23.164;2023-05-31T11:46:54;10.43;;;4.43;;
10201;SDS011;5143;42.584;23.164;2023-05-31T11:49:26;9.77;;;4.20;;
10201;SDS011;5143;42.584;23.164;2023-05-31T11:51:53;10.47;;;4.63;;
10201;SDS011;5143;42.584;23.164;2023-05-31T11:54:23;13.10;;;4.47;;
10201;SDS011;5143;42.584;23.164;2023-05-31T11:56:54;7.63;;;4.30;;
10201;SDS011;5143;42.584;23.164;2023-05-31T11:59:23;6.57;;;3.80;;
10201;SDS011;5143;42.584;23.164;2023-05-31T12:01:56;6.57;;;3.40;;
10201;SDS011;5143;42.584;23.164;2023-05-31T12:04:28;6.37;;;3.43;;
10201;SDS011;5143;42.584;23.164;2023-05-31T12:06:56;8.73;;;3.10;;
10201;SDS011;5143;42.584;23.164;2023-05-31T12:09:23;5.17;;;3.40;;
10201;SDS011;5143;42.584;23.164;2023-05-31T12:11:51;7.90;;;3.63;;
10201;SDS011;5143;42.584;23.164;2023-05-31T12:14:18;4.47;;;3.20;;
10201;SDS011;5143;42.584;23.164;2023-05-31T12:16:45;5.47;;;3.47;;
10201;SDS011;5143;42.584;23.164;2023-05-31T12:19:14;5.60;;;3.37;;
10201;SDS011;5143;42.584;23.164;2023-05-31T12:21:43;7.60;;;3.37;;
10201;SDS011;5143;42.584;23.164;2023-05-31T12:24:10;5.07;;;3.40;;
10201;SDS011;5143;42.584;23.164;2023-05-31T12:26:38;8.73;;;3.33;;
10201;SDS011;5143;42.584;23.164;2023-05-31T12:29:06;9.20;;;4.10;;
10201;SDS011;5143;42.584;23.164;2023-05-31T12:31:33;7.27;;;3.27;;
10201;SDS011;5143;42.584;23.164;2023-05-31T12:34:05;7.30;;;3.03;;
10201;SDS011;5143;42.584;23.164;2023-05-31T12:36:38;5.63;;;3.20;;
10201;SDS011;5143;42.584;23.164;2023-05-31T12:39:11;6.30;;;3.20;;
10201;SDS011;5143;42.584;23.164;2023-05-31T12:41:41;3.57;;;2.60;;
10201;SDS011;5143;42.584;23.164;2023-05-31T12:44:08;6.93;;;3.10;;
10201;SDS011;5143;42.584;23.164;2023-05-31T12:46:39;6.87;;;2.87;;
10201;SDS011;5143;42.584;23.164;2023-05-31T12:49:11;7.10;;;3.17;;
10201;SDS011;5143;42.584;23.164;2023-05-31T12:51:39;6.83;;;2.93;;
10201;SDS011;5143;42.584;23.164;2023-05-31T12:54:12;9.20;;;3.20;;
10201;SDS011;5143;42.584;23.164;2023-05-31T12:56:39;11.23;;;3.17;;
10201;SDS011;5143;42.584;23.164;2023-05-31T12:59:06;5.50;;;3.80;;
10201;SDS011;5143;42.584;23.164;2023-05-31T13:01:33;7.17;;;3.37;;
10201;SDS011;5143;42.584;23.164;2023-05-31T13:04:02;11.83;;;3.43;;
10201;SDS011;5143;42.584;23.164;2023-05-31T13:06:28;6.50;;;2.93;;
10201;SDS011;5143;42.584;23.164;2023-05-31T13:08:55;9.37;;;2.90;;
10201;SDS011;5143;42.584;23.164;2023-05-31T13:11:23;9.27;;;3.47;;
10201;SDS011;5143;42.584;23.164;2023-05-31T13:13:50;8.23;;;2.27;;
10201;SDS011;5143;42.584;23.164;2023-05-31T13:16:17;9.60;;;2.27;;
10201;SDS011;5143;42.584;23.164;2023-05-31T13:18:43;11.70;;;2.63;;
10201;SDS011;5143;42.584;23.164;2023-05-31T13:21:10;6.53;;;2.03;;
10201;SDS011;5143;42.584;23.164;2023-05-31T13:23:37;5.90;;;2.23;;
10201;SDS011;5143;42.584;23.164;2023-05-31T13:26:04;9.13;;;2.07;;
10201;SDS011;5143;42.584;23.164;2023-05-31T13:28:32;7.03;;;2.10;;
10201;SDS011;5143;42.584;23.164;2023-05-31T13:30:59;3.50;;;2.10;;
10201;SDS011;5143;42.584;23.164;2023-05-31T13:33:26;5.77;;;2.20;;
10201;SDS011;5143;42.584;23.164;2023-05-31T13:35:53;3.37;;;2.50;;
10201;SDS011;5143;42.584;23.164;2023-05-31T13:38:21;4.73;;;2.50;;
10201;SDS011;5143;42.584;23.164;2023-05-31T13:40:48;7.03;;;2.73;;
10201;SDS011;5143;42.584;23.164;2023-05-31T13:43:16;5.50;;;2.77;;
10201;SDS011;5143;42.584;23.164;2023-05-31T13:45:44;9.37;;;2.67;;
10201;SDS011;5143;42.584;23.164;2023-05-31T13:48:11;9.17;;;3.00;;
10201;SDS011;5143;42.584;23.164;2023-05-31T13:50:39;15.07;;;2.93;;
10201;SDS011;5143;42.584;23.164;2023-05-31T13:53:06;7.13;;;2.23;;
10201;SDS011;5143;42.584;23.164;2023-05-31T13:55:34;9.90;;;3.00;;
10201;SDS011;5143;42.584;23.164;2023-05-31T13:58:00;16.73;;;3.33;;
10201;SDS011;5143;42.584;23.164;2023-05-31T14:00:27;4.53;;;3.10;;
10201;SDS011;5143;42.584;23.164;2023-05-31T14:02:56;10.53;;;4.20;;
10201;SDS011;5143;42.584;23.164;2023-05-31T14:05:23;7.33;;;3.57;;
10201;SDS011;5143;42.584;23.164;2023-05-31T14:07:51;10.60;;;4.47;;
10201;SDS011;5143;42.584;23.164;2023-05-31T14:10:18;10.00;;;4.13;;
10201;SDS011;5143;42.584;23.164;2023-05-31T14:12:45;6.93;;;3.30;;
10201;SDS011;5143;42.584;23.164;2023-05-31T14:15:12;10.10;;;4.03;;
10201;SDS011;5143;42.584;23.164;2023-05-31T14:17:39;8.23;;;3.97;;
10201;SDS011;5143;42.584;23.164;2023-05-31T14:20:08;13.10;;;3.70;;
10201;SDS011;5143;42.584;23.164;2023-05-31T14:22:35;7.93;;;4.00;;
10201;SDS011;5143;42.584;23.164;2023-05-31T14:25:02;11.70;;;3.83;;
10201;SDS011;5143;42.584;23.164;2023-05-31T14:27:29;6.90;;;4.00;;
10201;SDS011;5143;42.584;23.164;2023-05-31T14:29:55;4.63;;;3.70;;
10201;SDS011;5143;42.584;23.164;2023-05-31T14:32:22;6.57;;;3.47;;
10201;SDS011;5143;42.584;23.164;2023-05-31T14:34:49;6.90;;;3.90;;
10201;SDS011;5143;42.584;23.164;2023-05-31T14:37:17;8.50;;;4.10;;
10201;SDS011;5143;42.584;23.164;2023-05-31T14:39:44;8.63;;;4.20;;
10201;SDS011;5143;42.584;23.164;2023-05-31T14:42:10;6.77;;;3.87;;
10201;SDS011;5143;42.584;23.164;2023-05-31T14:44:37;3.80;;;3.30;;
10201;SDS011;5143;42.584;23.164;2023-05-31T14:47:05;10.40;;;3.83;;
10201;SDS011;5143;42.584;23.164;2023-05-31T14:49:31;5.50;;;3.50;;